Tecumseh — WTW9257 — position and weather

sailwx.info

Track history (hours):
 
Tides and Currents Weather Stations Pressure Air Temp Water Temp Dewpoint Dewpoint Depression Visibility Wind Speed Wind Dir Waves Ship Positions

Tecumseh

Owner: SAUSE BROS INC, COOS BAY, OR. More information available from US FCC via Universal Licensing System and Coast Guard Vessel Documentation Center.

Last reported at 2014-Nov-08 15:32 UTC. Time now 2014-Nov-27 10:45 UTC.
Position N 45°12' W 124°33'.
Warning: this ship's position is 18 days out of date.

Length 90 m; draft 4.9 m.

Type: Towing. MMSI: 367133160.

Date/timePositionNaut miles runAvg speedWind from/ knotsBaromVisibWave heightAir tempDewpointWater temp
2014-Nov-08 15:32N 45°12' W 124°33'1210.1
2014-Nov-08 14:19N 45°24' W 124°29'8 9.9
2014-Nov-08 13:33N 45°32' W 124°28'10 9.9
2014-Nov-08 12:33N 45°42' W 124°26'1010.2
2014-Nov-08 11:33N 45°52' W 124°23'1010.3
2014-Nov-08 10:33N 46°02' W 124°21'10 9.8
2014-Nov-08 09:33N 46°10' W 124°13'9 9.2
2014-Nov-08 08:33N 46°15' W 124°02'7 7.3
2014-Nov-08 07:33N 46°11' W 123°54'8 7.8
2014-Nov-08 06:33N 46°14' W 123°43'1010.0
2014-Nov-08 05:34N 46°16' W 123°29'1010.0
2014-Nov-08 04:33N 46°09' W 123°20'1010.4
2014-Nov-08 03:33N 46°10' W 123°05'1110.6
2014-Nov-08 02:33N 46°03' W 122°53'1110.6
2014-Nov-08 01:33N 45°53' W 122°48'10 9.5
2014-Nov-08 00:33N 45°44' W 122°46'9 8.5
2014-Nov-07 23:33N 45°35' W 122°46'3 3.2
2014-Nov-07 22:33N 45°33' W 122°42'0 0.0
2014-Nov-07 21:33N 45°33' W 122°42'0 0.0
2014-Nov-07 20:33N 45°33' W 122°42'0 0.0
2014-Nov-07 19:33N 45°33' W 122°42'0 0.0
2014-Nov-07 18:33N 45°33' W 122°42'0 0.0
2014-Nov-07 17:33N 45°33' W 122°42'0 0.0
2014-Nov-07 16:33N 45°33' W 122°42'0 0.0
2014-Nov-07 15:33N 45°33' W 122°42'0 0.0
2014-Nov-07 14:33N 45°33' W 122°42'0 0.0
2014-Nov-07 13:33N 45°33' W 122°42'0 0.0
2014-Nov-07 12:33N 45°33' W 122°42'0 0.0
2014-Nov-07 11:33N 45°33' W 122°42'0 0.0
2014-Nov-07 10:33N 45°33' W 122°42'0 0.0
2014-Nov-07 09:33N 45°33' W 122°42'0 0.0
2014-Nov-07 08:33N 45°33' W 122°42'0 0.0
2014-Nov-07 07:33N 45°33' W 122°42'0 0.0
2014-Nov-07 06:33N 45°33' W 122°42'0 0.0
2014-Nov-07 05:33N 45°33' W 122°42'0 0.0
2014-Nov-07 04:33N 45°33' W 122°42'0 0.0
2014-Nov-07 03:33N 45°33' W 122°42'0 0.0
2014-Nov-07 02:33N 45°33' W 122°42'0 0.0
2014-Nov-07 01:33N 45°33' W 122°42'0 0.0
2014-Nov-07 00:33N 45°33' W 122°42'0 0.0
2014-Nov-06 23:33N 45°33' W 122°42'0 0.0
2014-Nov-06 22:33N 45°33' W 122°42'0 0.0
2014-Nov-06 21:33N 45°33' W 122°42'0 0.0
2014-Nov-06 20:33N 45°33' W 122°42'0 0.0
2014-Nov-06 19:33N 45°33' W 122°42'0 0.0
2014-Nov-06 18:33N 45°33' W 122°42'0 0.0
2014-Nov-06 17:33N 45°33' W 122°42'0 0.0
2014-Nov-06 16:33N 45°33' W 122°42'0 0.0
2014-Nov-06 15:33N 45°33' W 122°42'0 0.0
2014-Nov-06 14:33N 45°33' W 122°42'0 0.0
2014-Nov-06 13:33N 45°33' W 122°42'0 0.0
2014-Nov-06 12:33N 45°33' W 122°42'0 0.0
2014-Nov-06 11:33N 45°33' W 122°42'0 0.0
2014-Nov-06 10:33N 45°33' W 122°42'0 0.0
2014-Nov-06 09:33N 45°33' W 122°42'0 0.0
2014-Nov-06 08:33N 45°33' W 122°42'0 0.0
2014-Nov-06 07:33N 45°33' W 122°42'0 0.0
2014-Nov-06 06:33N 45°33' W 122°42'0 0.0
2014-Nov-06 05:33N 45°33' W 122°42'0 0.0
2014-Nov-06 04:33N 45°33' W 122°42'0 0.0
2014-Nov-06 03:33N 45°33' W 122°42'0 0.0
2014-Nov-06 02:33N 45°33' W 122°42'0 0.0
2014-Nov-06 01:33N 45°33' W 122°42'0 0.0
2014-Nov-06 00:33N 45°33' W 122°42'0 0.0
2014-Nov-05 23:33N 45°33' W 122°42'0 0.0
2014-Nov-05 22:33N 45°33' W 122°42'0 0.0
2014-Nov-05 21:33N 45°33' W 122°42'0 0.0
2014-Nov-05 20:33N 45°33' W 122°42'0 0.0
2014-Nov-05 19:33N 45°33' W 122°42'0 0.0
2014-Nov-05 18:33N 45°33' W 122°42'0 0.0
2014-Nov-05 17:33N 45°33' W 122°42'0 0.0
2014-Nov-05 16:33N 45°33' W 122°42'0 0.0
2014-Nov-05 15:33N 45°33' W 122°42'0 0.0
2014-Nov-05 14:33N 45°33' W 122°42'0 0.0
2014-Nov-05 13:33N 45°33' W 122°42'0 0.0
2014-Nov-05 12:33N 45°33' W 122°42'0 0.0
2014-Nov-05 11:33N 45°33' W 122°42'0 0.0
2014-Nov-05 10:33N 45°33' W 122°42'0 0.0
2014-Nov-05 09:33N 45°33' W 122°42'0 0.0
2014-Nov-05 08:33N 45°33' W 122°42'0 0.0
2014-Nov-05 07:33N 45°33' W 122°42'0 0.0
2014-Nov-05 06:33N 45°33' W 122°42'0 0.0
2014-Nov-05 05:33N 45°33' W 122°42'0 0.0
2014-Nov-05 04:33N 45°33' W 122°42'0 0.0
2014-Nov-05 03:33N 45°33' W 122°42'0 0.0
2014-Nov-05 02:33N 45°33' W 122°42'0 0.0
2014-Nov-05 01:33N 45°33' W 122°42'0 0.0
2014-Nov-05 00:33N 45°33' W 122°42'0 0.0
2014-Nov-04 23:32N 45°33' W 122°42'0 0.0
2014-Nov-04 22:33N 45°33' W 122°42'0 0.0
2014-Nov-04 21:33N 45°33' W 122°42'0 0.0
2014-Nov-04 20:33N 45°33' W 122°42'0 0.0
2014-Nov-04 19:33N 45°33' W 122°42'0 0.0
2014-Nov-04 18:33N 45°33' W 122°42'0 0.0
2014-Nov-04 17:33N 45°33' W 122°42'0 0.0
2014-Nov-04 16:33N 45°33' W 122°42'0 0.0
2014-Nov-04 15:33N 45°33' W 122°42'0 0.0
2014-Nov-04 14:33N 45°33' W 122°42'0 0.0
2014-Nov-04 13:33N 45°33' W 122°42'0 0.0
2014-Nov-04 12:33N 45°33' W 122°42'0 0.0
2014-Nov-04 11:33N 45°33' W 122°42'0 0.0
2014-Nov-04 10:33N 45°33' W 122°42'0 0.0
2014-Nov-04 09:33N 45°33' W 122°42'0 0.0
2014-Nov-04 08:33N 45°33' W 122°42'0 0.0
2014-Nov-04 07:33N 45°33' W 122°42'0 0.0
2014-Nov-04 06:33N 45°33' W 122°42'0 0.0
2014-Nov-04 05:33N 45°33' W 122°42'0 0.0
2014-Nov-04 04:33N 45°33' W 122°42'0 0.0
2014-Nov-04 03:33N 45°33' W 122°42'0 0.0
2014-Nov-04 02:33N 45°33' W 122°42'0 0.0
2014-Nov-04 01:34N 45°33' W 122°42'0 0.0
2014-Nov-04 00:33N 45°33' W 122°42'0 0.0
2014-Nov-03 23:33N 45°33' W 122°42'0 0.0
2014-Nov-03 22:33N 45°33' W 122°42'0 0.0
2014-Nov-03 21:33N 45°33' W 122°42'0 0.0
2014-Nov-03 20:33N 45°33' W 122°42'0 0.0
2014-Nov-03 19:33N 45°33' W 122°42'0 0.0
2014-Nov-03 19:09N 45°33' W 122°42'0 0.0
2014-Nov-03 18:33N 45°33' W 122°42'0 0.0
2014-Nov-03 18:12N 45°33' W 122°42'0 0.0
2014-Nov-03 17:50N 45°33' W 122°42'0 0.0
2014-Nov-03 17:33N 45°33' W 122°42'0 0.0
2014-Nov-03 16:33N 45°33' W 122°42'0 0.0
2014-Nov-03 14:33N 45°33' W 122°42'0 0.0
2014-Nov-03 13:33N 45°33' W 122°42'0 0.0
2014-Nov-03 12:33N 45°33' W 122°42'0 0.0
2014-Nov-03 11:33N 45°33' W 122°42'0 0.0
2014-Nov-03 10:33N 45°33' W 122°42'0 0.0
2014-Nov-03 09:33N 45°33' W 122°42'  
2014-Oct-31 07:33N 45°33' W 122°42'0 0.0
2014-Oct-31 06:33N 45°33' W 122°42'0 0.0
2014-Oct-31 05:33N 45°33' W 122°42'0 0.0
2014-Oct-31 04:33N 45°33' W 122°42'0 0.0
2014-Oct-31 03:33N 45°33' W 122°42'0 0.0
2014-Oct-31 02:33N 45°33' W 122°42'0 0.0
2014-Oct-31 01:33N 45°33' W 122°42'0 0.0
2014-Oct-31 00:33N 45°33' W 122°42'0 0.0
2014-Oct-30 23:33N 45°33' W 122°42'0 0.0
2014-Oct-30 22:33N 45°33' W 122°42'0 0.0
2014-Oct-30 21:33N 45°33' W 122°42'0 0.0
2014-Oct-30 20:33N 45°33' W 122°42'0 0.0
2014-Oct-30 19:33N 45°33' W 122°42'0 0.0
2014-Oct-30 18:33N 45°33' W 122°42'0 0.0
2014-Oct-30 17:33N 45°33' W 122°42'0 0.0
2014-Oct-30 16:33N 45°33' W 122°42'0 0.0
2014-Oct-30 15:33N 45°33' W 122°42'0 0.0
2014-Oct-30 14:33N 45°33' W 122°42'0 0.0
2014-Oct-30 13:33N 45°33' W 122°42'0 0.0
2014-Oct-30 12:33N 45°33' W 122°42'0 0.0
2014-Oct-30 11:33N 45°33' W 122°42'0 0.0
2014-Oct-30 10:33N 45°33' W 122°42'0 0.0
2014-Oct-30 09:33N 45°33' W 122°42'0 0.0
2014-Oct-30 08:33N 45°33' W 122°42'0 0.0
2014-Oct-30 07:33N 45°33' W 122°42'0 0.0
2014-Oct-30 06:33N 45°33' W 122°42'0 0.0
2014-Oct-30 05:32N 45°33' W 122°42'0 0.0
2014-Oct-30 04:33N 45°33' W 122°42'0 0.0
2014-Oct-30 03:33N 45°33' W 122°42'0 0.0
2014-Oct-30 02:33N 45°33' W 122°42'0 0.0
2014-Oct-30 01:33N 45°33' W 122°42'0 0.0
2014-Oct-30 00:33N 45°33' W 122°42'0 0.0
2014-Oct-29 23:33N 45°33' W 122°42'0 0.0
2014-Oct-29 22:33N 45°33' W 122°42'0 0.0
2014-Oct-29 21:33N 45°33' W 122°42'0 0.0
2014-Oct-29 20:33N 45°33' W 122°42'0 0.0
2014-Oct-29 19:33N 45°33' W 122°42'0 0.0
2014-Oct-29 18:33N 45°33' W 122°42'0 0.0
2014-Oct-29 17:33N 45°33' W 122°42'0 0.0
2014-Oct-29 16:33N 45°33' W 122°42'0 0.0
2014-Oct-29 15:33N 45°33' W 122°42'  
Track history (hours):
 
Tides and Currents Weather Stations Pressure Air Temp Water Temp Dewpoint Dewpoint Depression Visibility Wind Speed Wind Dir Waves Ship Positions

Tecumseh

Owner: SAUSE BROS INC, COOS BAY, OR. More information available from US FCC via Universal Licensing System and Coast Guard Vessel Documentation Center.

Last reported at 2014-Nov-08 15:32 UTC. Time now 2014-Nov-27 10:45 UTC.
Position N 45°12' W 124°33'.
Warning: this ship's position is 18 days out of date.

Length 90 m; draft 4.9 m.

Type: Towing. MMSI: 367133160.

Date/timePositionNaut miles runAvg speedWind from/ knotsBaromVisibWave heightAir tempDewpointWater temp
2014-Nov-08 15:32N 45°12' W 124°33'1210.1
2014-Nov-08 14:19N 45°24' W 124°29'8 9.9
2014-Nov-08 13:33N 45°32' W 124°28'10 9.9
2014-Nov-08 12:33N 45°42' W 124°26'1010.2
2014-Nov-08 11:33N 45°52' W 124°23'1010.3
2014-Nov-08 10:33N 46°02' W 124°21'10 9.8
2014-Nov-08 09:33N 46°10' W 124°13'9 9.2
2014-Nov-08 08:33N 46°15' W 124°02'7 7.3
2014-Nov-08 07:33N 46°11' W 123°54'8 7.8
2014-Nov-08 06:33N 46°14' W 123°43'1010.0
2014-Nov-08 05:34N 46°16' W 123°29'1010.0
2014-Nov-08 04:33N 46°09' W 123°20'1010.4
2014-Nov-08 03:33N 46°10' W 123°05'1110.6
2014-Nov-08 02:33N 46°03' W 122°53'1110.6
2014-Nov-08 01:33N 45°53' W 122°48'10 9.5
2014-Nov-08 00:33N 45°44' W 122°46'9 8.5
2014-Nov-07 23:33N 45°35' W 122°46'3 3.2
2014-Nov-07 22:33N 45°33' W 122°42'0 0.0
2014-Nov-07 21:33N 45°33' W 122°42'0 0.0
2014-Nov-07 20:33N 45°33' W 122°42'0 0.0
2014-Nov-07 19:33N 45°33' W 122°42'0 0.0
2014-Nov-07 18:33N 45°33' W 122°42'0 0.0
2014-Nov-07 17:33N 45°33' W 122°42'0 0.0
2014-Nov-07 16:33N 45°33' W 122°42'0 0.0
2014-Nov-07 15:33N 45°33' W 122°42'0 0.0
2014-Nov-07 14:33N 45°33' W 122°42'0 0.0
2014-Nov-07 13:33N 45°33' W 122°42'0 0.0
2014-Nov-07 12:33N 45°33' W 122°42'0 0.0
2014-Nov-07 11:33N 45°33' W 122°42'0 0.0
2014-Nov-07 10:33N 45°33' W 122°42'0 0.0
2014-Nov-07 09:33N 45°33' W 122°42'0 0.0
2014-Nov-07 08:33N 45°33' W 122°42'0 0.0
2014-Nov-07 07:33N 45°33' W 122°42'0 0.0
2014-Nov-07 06:33N 45°33' W 122°42'0 0.0
2014-Nov-07 05:33N 45°33' W 122°42'0 0.0
2014-Nov-07 04:33N 45°33' W 122°42'0 0.0
2014-Nov-07 03:33N 45°33' W 122°42'0 0.0
2014-Nov-07 02:33N 45°33' W 122°42'0 0.0
2014-Nov-07 01:33N 45°33' W 122°42'0 0.0
2014-Nov-07 00:33N 45°33' W 122°42'0 0.0
2014-Nov-06 23:33N 45°33' W 122°42'0 0.0
2014-Nov-06 22:33N 45°33' W 122°42'0 0.0
2014-Nov-06 21:33N 45°33' W 122°42'0 0.0
2014-Nov-06 20:33N 45°33' W 122°42'0 0.0
2014-Nov-06 19:33N 45°33' W 122°42'0 0.0
2014-Nov-06 18:33N 45°33' W 122°42'0 0.0
2014-Nov-06 17:33N 45°33' W 122°42'0 0.0
2014-Nov-06 16:33N 45°33' W 122°42'0 0.0
2014-Nov-06 15:33N 45°33' W 122°42'0 0.0
2014-Nov-06 14:33N 45°33' W 122°42'0 0.0
2014-Nov-06 13:33N 45°33' W 122°42'0 0.0
2014-Nov-06 12:33N 45°33' W 122°42'0 0.0
2014-Nov-06 11:33N 45°33' W 122°42'0 0.0
2014-Nov-06 10:33N 45°33' W 122°42'0 0.0
2014-Nov-06 09:33N 45°33' W 122°42'0 0.0
2014-Nov-06 08:33N 45°33' W 122°42'0 0.0
2014-Nov-06 07:33N 45°33' W 122°42'0 0.0
2014-Nov-06 06:33N 45°33' W 122°42'0 0.0
2014-Nov-06 05:33N 45°33' W 122°42'0 0.0
2014-Nov-06 04:33N 45°33' W 122°42'0 0.0
2014-Nov-06 03:33N 45°33' W 122°42'0 0.0
2014-Nov-06 02:33N 45°33' W 122°42'0 0.0
2014-Nov-06 01:33N 45°33' W 122°42'0 0.0
2014-Nov-06 00:33N 45°33' W 122°42'0 0.0
2014-Nov-05 23:33N 45°33' W 122°42'0 0.0
2014-Nov-05 22:33N 45°33' W 122°42'0 0.0
2014-Nov-05 21:33N 45°33' W 122°42'0 0.0
2014-Nov-05 20:33N 45°33' W 122°42'0 0.0
2014-Nov-05 19:33N 45°33' W 122°42'0 0.0
2014-Nov-05 18:33N 45°33' W 122°42'0 0.0
2014-Nov-05 17:33N 45°33' W 122°42'0 0.0
2014-Nov-05 16:33N 45°33' W 122°42'0 0.0
2014-Nov-05 15:33N 45°33' W 122°42'0 0.0
2014-Nov-05 14:33N 45°33' W 122°42'0 0.0
2014-Nov-05 13:33N 45°33' W 122°42'0 0.0
2014-Nov-05 12:33N 45°33' W 122°42'0 0.0
2014-Nov-05 11:33N 45°33' W 122°42'0 0.0
2014-Nov-05 10:33N 45°33' W 122°42'0 0.0
2014-Nov-05 09:33N 45°33' W 122°42'0 0.0
2014-Nov-05 08:33N 45°33' W 122°42'0 0.0
2014-Nov-05 07:33N 45°33' W 122°42'0 0.0
2014-Nov-05 06:33N 45°33' W 122°42'0 0.0
2014-Nov-05 05:33N 45°33' W 122°42'0 0.0
2014-Nov-05 04:33N 45°33' W 122°42'0 0.0
2014-Nov-05 03:33N 45°33' W 122°42'0 0.0
2014-Nov-05 02:33N 45°33' W 122°42'0 0.0
2014-Nov-05 01:33N 45°33' W 122°42'0 0.0
2014-Nov-05 00:33N 45°33' W 122°42'0 0.0
2014-Nov-04 23:32N 45°33' W 122°42'0 0.0
2014-Nov-04 22:33N 45°33' W 122°42'0 0.0
2014-Nov-04 21:33N 45°33' W 122°42'0 0.0
2014-Nov-04 20:33N 45°33' W 122°42'0 0.0
2014-Nov-04 19:33N 45°33' W 122°42'0 0.0
2014-Nov-04 18:33N 45°33' W 122°42'0 0.0
2014-Nov-04 17:33N 45°33' W 122°42'0 0.0
2014-Nov-04 16:33N 45°33' W 122°42'0 0.0
2014-Nov-04 15:33N 45°33' W 122°42'0 0.0
2014-Nov-04 14:33N 45°33' W 122°42'0 0.0
2014-Nov-04 13:33N 45°33' W 122°42'0 0.0
2014-Nov-04 12:33N 45°33' W 122°42'0 0.0
2014-Nov-04 11:33N 45°33' W 122°42'0 0.0
2014-Nov-04 10:33N 45°33' W 122°42'0 0.0
2014-Nov-04 09:33N 45°33' W 122°42'0 0.0
2014-Nov-04 08:33N 45°33' W 122°42'0 0.0
2014-Nov-04 07:33N 45°33' W 122°42'0 0.0
2014-Nov-04 06:33N 45°33' W 122°42'0 0.0
2014-Nov-04 05:33N 45°33' W 122°42'0 0.0
2014-Nov-04 04:33N 45°33' W 122°42'0 0.0
2014-Nov-04 03:33N 45°33' W 122°42'0 0.0
2014-Nov-04 02:33N 45°33' W 122°42'0 0.0
2014-Nov-04 01:34N 45°33' W 122°42'0 0.0
2014-Nov-04 00:33N 45°33' W 122°42'0 0.0
2014-Nov-03 23:33N 45°33' W 122°42'0 0.0
2014-Nov-03 22:33N 45°33' W 122°42'0 0.0
2014-Nov-03 21:33N 45°33' W 122°42'0 0.0
2014-Nov-03 20:33N 45°33' W 122°42'0 0.0
2014-Nov-03 19:33N 45°33' W 122°42'0 0.0
2014-Nov-03 19:09N 45°33' W 122°42'0 0.0
2014-Nov-03 18:33N 45°33' W 122°42'0 0.0
2014-Nov-03 18:12N 45°33' W 122°42'0 0.0
2014-Nov-03 17:50N 45°33' W 122°42'0 0.0
2014-Nov-03 17:33N 45°33' W 122°42'0 0.0
2014-Nov-03 16:33N 45°33' W 122°42'0 0.0
2014-Nov-03 14:33N 45°33' W 122°42'0 0.0
2014-Nov-03 13:33N 45°33' W 122°42'0 0.0
2014-Nov-03 12:33N 45°33' W 122°42'0 0.0
2014-Nov-03 11:33N 45°33' W 122°42'0 0.0
2014-Nov-03 10:33N 45°33' W 122°42'0 0.0
2014-Nov-03 09:33N 45°33' W 122°42'  
2014-Oct-31 07:33N 45°33' W 122°42'0 0.0
2014-Oct-31 06:33N 45°33' W 122°42'0 0.0
2014-Oct-31 05:33N 45°33' W 122°42'0 0.0
2014-Oct-31 04:33N 45°33' W 122°42'0 0.0
2014-Oct-31 03:33N 45°33' W 122°42'0 0.0
2014-Oct-31 02:33N 45°33' W 122°42'0 0.0
2014-Oct-31 01:33N 45°33' W 122°42'0 0.0
2014-Oct-31 00:33N 45°33' W 122°42'0 0.0
2014-Oct-30 23:33N 45°33' W 122°42'0 0.0
2014-Oct-30 22:33N 45°33' W 122°42'0 0.0
2014-Oct-30 21:33N 45°33' W 122°42'0 0.0
2014-Oct-30 20:33N 45°33' W 122°42'0 0.0
2014-Oct-30 19:33N 45°33' W 122°42'0 0.0
2014-Oct-30 18:33N 45°33' W 122°42'0 0.0
2014-Oct-30 17:33N 45°33' W 122°42'0 0.0
2014-Oct-30 16:33N 45°33' W 122°42'0 0.0
2014-Oct-30 15:33N 45°33' W 122°42'0 0.0
2014-Oct-30 14:33N 45°33' W 122°42'0 0.0
2014-Oct-30 13:33N 45°33' W 122°42'0 0.0
2014-Oct-30 12:33N 45°33' W 122°42'0 0.0
2014-Oct-30 11:33N 45°33' W 122°42'0 0.0
2014-Oct-30 10:33N 45°33' W 122°42'0 0.0
2014-Oct-30 09:33N 45°33' W 122°42'0 0.0
2014-Oct-30 08:33N 45°33' W 122°42'0 0.0
2014-Oct-30 07:33N 45°33' W 122°42'0 0.0
2014-Oct-30 06:33N 45°33' W 122°42'0 0.0
2014-Oct-30 05:32N 45°33' W 122°42'0 0.0
2014-Oct-30 04:33N 45°33' W 122°42'0 0.0
2014-Oct-30 03:33N 45°33' W 122°42'0 0.0
2014-Oct-30 02:33N 45°33' W 122°42'0 0.0
2014-Oct-30 01:33N 45°33' W 122°42'0 0.0
2014-Oct-30 00:33N 45°33' W 122°42'0 0.0
2014-Oct-29 23:33N 45°33' W 122°42'0 0.0
2014-Oct-29 22:33N 45°33' W 122°42'0 0.0
2014-Oct-29 21:33N 45°33' W 122°42'0 0.0
2014-Oct-29 20:33N 45°33' W 122°42'0 0.0
2014-Oct-29 19:33N 45°33' W 122°42'0 0.0
2014-Oct-29 18:33N 45°33' W 122°42'0 0.0
2014-Oct-29 17:33N 45°33' W 122°42'0 0.0
2014-Oct-29 16:33N 45°33' W 122°42'0 0.0
2014-Oct-29 15:33N 45°33' W 122°42'  

Dump ship's entire track history